Date,TemperatureHighF,TemperatureAvgF,TemperatureLowF,DewpointHighF,DewpointAvgF,DewpointLowF,HumidityHigh,HumidityAvg,HumidityLow,PressureMaxIn,PressureMinIn,WindSpeedMaxMPH,WindSpeedAvgMPH,GustSpeedMaxMPH,PrecipitationSumIn
2013-2-1,24,18,12,11,6,2,80,61,48,30.09,29.50,9,3,19,0.00
2013-2-2,22,14,5,15,7,2,89,74,52,30.18,30.03,9,2,13,0.00
2013-2-3,29,16,7,14,9,4,91,75,49,30.04,29.74,4,1,6,0.00
2013-2-4,24,17,6,15,6,-4,90,64,34,29.92,29.71,9,2,18,0.00
2013-2-5,24,11,-4,6,-1,-8,83,61,34,30.05,29.92,4,1,8,0.00
2013-2-6,30,19,9,22,8,-8,85,64,38,30.35,29.89,11,2,15,0.01
2013-2-7,20,11,2,0,-5,-9,71,49,28,30.57,30.36,4,1,12,0.00
2013-2-8,23,18,14,21,14,0,92,82,52,30.46,29.93,4,1,10,0.00
2013-2-9,20,12,-2,15,4,-6,88,71,53,30.34,29.92,16,3,23,0.01
2013-2-10,32,8,-12,11,-2,-17,89,70,30,30.51,30.34,4,1,5,0.03
2013-2-11,32,20,4,31,17,1,97,88,77,30.34,29.60,3,1,4,0.00
2013-2-12,36,33,30,34,30,26,97,89,77,29.82,29.58,8,1,15,0.18
2013-2-13,38,32,28,27,25,20,92,78,51,29.83,29.73,4,1,7,0.02
2013-2-14,36,29,24,26,22,19,93,77,51,29.95,29.73,6,1,9,0.00
2013-2-15,45,33,23,31,24,20,91,73,44,29.94,29.84,12,2,18,0.01
2013-2-16,32,27,18,23,14,4,80,59,44,29.97,29.88,6,2,12,2.14
2013-2-17,18,14,10,6,3,1,74,63,54,29.88,29.63,11,3,22,0.00
2013-2-18,27,14,6,1,-2,-8,72,53,22,30.15,29.81,10,3,20,0.00
2013-2-19,40,24,5,31,12,-2,95,63,29,30.18,29.59,9,2,14,0.00
2013-2-20,32,27,23,31,22,17,96,82,63,29.74,29.56,8,2,14,0.04
2013-2-21,22,18,11,17,10,3,85,72,56,30.35,29.75,11,2,17,0.01
2013-2-22,35,26,18,23,21,16,91,79,57,30.44,30.25,5,1,6,0.08
2013-2-23,34,31,26,30,27,22,96,84,65,30.26,29.92,9,2,15,0.02
2013-2-24,38,33,30,34,31,29,96,93,82,29.92,29.76,3,0,5,0.21
2013-2-25,38,32,30,33,31,29,97,93,81,30.23,29.92,2,0,4,0.05
2013-2-26,43,35,30,32,30,28,97,83,58,30.32,30.14,8,1,9,0.00
2013-2-27,37,33,30,34,31,27,97,92,80,30.14,29.65,4,1,5,0.29
2013-2-28,45,35,31,37,33,30,97,91,70,29.64,29.55,3,0,3,0.24